Time;durP1;ratioP1;P1;durP2;ratioP2;P2;SDS_P1;SDS_P2;PMS_P1;PMS_P2;Temp;Humidity;BMP_temperature;BMP_pressure;BME280_temperature;BME280_humidity;BME280_pressure;Samples;Min_cycle;Max_cycle;Signal;HPM_P1;HPM_P2
2022/10/12 00:01:33;;;;;;;;;;;;;;;;;;5052191;28;19925;-77
2022/10/12 00:03:59;;;;;;;;;;;;;;;;;;5072619;28;19928;-77
2022/10/12 00:06:26;;;;;;;;;;;;;;;;;;5075662;28;19947;-77
2022/10/12 00:08:54;;;;;;;;;;;;;;;;;;5076177;28;19931;-77
2022/10/12 00:11:21;;;;;;;;;;;;;;;;;;5076145;28;19925;-77
2022/10/12 00:13:48;;;;;;;;;;;;;;;;;;5076080;28;19947;-77
2022/10/12 00:16:15;;;;;;;;;;;;;;;;;;5076827;28;19925;-77
2022/10/12 00:18:42;;;;;;;;;;;;;;;;;;5075994;28;20019;-77
2022/10/12 00:21:09;;;;;;;;;;;;;;;;;;5075698;28;19928;-77
2022/10/12 00:23:36;;;;;;;;;;;;;;;;;;5076010;28;19924;-76
2022/10/12 00:26:05;;;;;;;;;;;;;;;;;;5075436;28;20413;-77
2022/10/12 00:28:32;;;;;;;;;;;;;;;;;;5075643;28;20442;-77
2022/10/12 00:30:59;;;;;;;;;;;;;;;;;;5075659;28;19993;-76
2022/10/12 00:33:27;;;;;;;;;;;;;;;;;;5075762;28;19931;-77
2022/10/12 00:35:53;;;;;;;;;;;;;;;;;;5075253;28;20443;-76
2022/10/12 00:38:20;;;;;;;;;;;;;;;;;;5075695;28;19972;-77
2022/10/12 00:40:46;;;;;;;;;;;;;;;;;;5075534;28;19924;-76
2022/10/12 00:43:26;;;;;;;;;;;;;;;;;;5075572;28;19937;-77
2022/10/12 00:45:52;;;;;;;;;;;;;;;;;;5075012;28;20016;-77
2022/10/12 00:48:18;;;;;;;;;;;;;;;;;;5075263;28;20354;-76
2022/10/12 00:50:45;;;;;;;;;;;;;;;;;;5075195;28;20008;-77
2022/10/12 00:53:13;;;;;;;;;;;;;;;;;;5075338;28;20367;-78
2022/10/12 00:55:44;;;;;;;;;;;;;;;;;;5074890;28;19924;-78
2022/10/12 00:58:11;;;;;;;;;;;;;;;;;;5075232;28;19928;-77
2022/10/12 01:00:40;;;;;;;;;;;;;;;;;;5075064;28;19967;-77
2022/10/12 01:03:07;;;;;;;;;;;;;;;;;;5064497;28;20303;-77
2022/10/12 01:05:34;;;;;;;;;;;;;;;;;;5054923;28;20023;-77
2022/10/12 01:08:01;;;;;;;;;;;;;;;;;;5072477;28;20038;-77
2022/10/12 01:10:28;;;;;;;;;;;;;;;;;;5074642;28;20303;-78
2022/10/12 01:12:54;;;;;;;;;;;;;;;;;;5075032;28;20011;-77
2022/10/12 01:15:22;;;;;;;;;;;;;;;;;;5074973;28;19998;-77
2022/10/12 01:17:54;;;;;;;;;;;;;;;;;;5074522;28;20339;-77
2022/10/12 01:20:53;;;;;;;;;;;;;;;;;;5074771;28;20365;-78
2022/10/12 01:23:40;;;;;;;;;;;;;;;;;;4992984;28;19926;-78
2022/10/12 01:26:16;;;;;;;;;;;;;;;;;;4992893;28;19933;-77
2022/10/12 01:28:48;;;;;;;;;;;;;;;;;;5044466;28;20417;-77
2022/10/12 01:31:20;;;;;;;;;;;;;;;;;;5074824;28;20302;-78
2022/10/12 01:33:50;;;;;;;;;;;;;;;;;;5074662;28;19925;-77
2022/10/12 01:36:19;;;;;;;;;;;;;;;;;;5074342;28;20005;-77
2022/10/12 01:38:48;;;;;;;;;;;;;;;;;;5074341;28;19999;-77
2022/10/12 01:41:17;;;;;;;;;;;;;;;;;;5074368;28;20013;-77
2022/10/12 01:43:45;;;;;;;;;;;;;;;;;;5074637;28;20042;-78
2022/10/12 01:46:30;;;;;;;;;;;;;;;;;;5074686;28;20019;-77
2022/10/12 01:48:58;;;;;;;;;;;;;;;;;;5075069;28;20032;-77
2022/10/12 01:51:31;;;;;;;;;;;;;;;;;;5076093;28;19924;-76
2022/10/12 01:54:03;;;;;;;;;;;;;;;;;;5077107;28;19924;-76
2022/10/12 01:56:34;;;;;;;;;;;;;;;;;;5077857;28;20024;-77
2022/10/12 01:59:04;;;;;;;;;;;;;;;;;;5077088;28;19971;-76
2022/10/12 02:01:33;;;;;;;;;;;;;;;;;;5077957;28;19924;-77
2022/10/12 02:04:03;;;;;;;;;;;;;;;;;;5077214;28;20011;-77
2022/10/12 02:06:32;;;;;;;;;;;;;;;;;;5075567;28;19924;-77
2022/10/12 02:09:01;;;;;;;;;;;;;;;;;;5076265;28;19975;-77
2022/10/12 02:11:28;;;;;;;;;;;;;;;;;;5076806;28;19968;-75
2022/10/12 02:13:57;;;;;;;;;;;;;;;;;;5074871;28;20333;-76
2022/10/12 02:16:27;;;;;;;;;;;;;;;;;;5074166;28;20012;-77
2022/10/12 02:18:55;;;;;;;;;;;;;;;;;;5075167;28;19931;-76
2022/10/12 02:21:25;;;;;;;;;;;;;;;;;;5076753;28;19991;-77
2022/10/12 02:23:53;;;;;;;;;;;;;;;;;;5077150;28;19928;-78
2022/10/12 02:26:20;;;;;;;;;;;;;;;;;;5077652;28;19931;-77
2022/10/12 02:28:47;;;;;;;;;;;;;;;;;;5086450;28;19924;-77
2022/10/12 02:31:17;;;;;;;;;;;;;;;;;;5095555;28;19988;-78
2022/10/12 02:33:46;;;;;;;;;;;;;;;;;;5093447;28;20022;-77
2022/10/12 02:36:14;;;;;;;;;;;;;;;;;;5092029;28;19976;-77
2022/10/12 02:38:43;;;;;;;;;;;;;;;;;;5077626;28;19925;-76
2022/10/12 02:41:12;;;;;;;;;;;;;;;;;;5073318;28;19931;-78
2022/10/12 02:43:42;;;;;;;;;;;;;;;;;;5073321;28;20001;-77
2022/10/12 02:46:09;;;;;;;;;;;;;;;;;;5073019;28;19930;-78
2022/10/12 02:48:38;;;;;;;;;;;;;;;;;;5072840;28;19924;-77
2022/10/12 02:51:06;;;;;;;;;;;;;;;;;;5072876;28;20477;-77
2022/10/12 02:53:32;;;;;;;;;;;;;;;;;;5073010;28;19928;-77
2022/10/12 02:56:04;;;;;;;;;;;;;;;;;;5072559;28;19924;-77
2022/10/12 02:58:30;;;;;;;;;;;;;;;;;;5073002;28;19935;-77
2022/10/12 03:00:57;;;;;;;;;;;;;;;;;;5072922;28;19924;-78
2022/10/12 03:03:23;;;;;;;;;;;;;;;;;;5072864;28;19946;-78
2022/10/12 03:05:50;;;;;;;;;;;;;;;;;;5072540;28;19924;-77
2022/10/12 03:08:16;;;;;;;;;;;;;;;;;;5072459;28;20038;-77
2022/10/12 03:10:43;;;;;;;;;;;;;;;;;;5072505;28;19972;-77
2022/10/12 03:13:10;;;;;;;;;;;;;;;;;;5063622;22;20029;-77
2022/10/12 03:15:37;;;;;;;;;;;;;;;;;;5035164;28;20290;-77
2022/10/12 03:18:03;;;;;;;;;;;;;;;;;;5033764;28;19925;-77
2022/10/12 03:20:30;;;;;;;;;;;;;;;;;;5032817;28;19948;-77
2022/10/12 03:22:56;;;;;;;;;;;;;;;;;;5042341;28;19931;-76
2022/10/12 03:25:22;;;;;;;;;;;;;;;;;;5052501;28;20379;-77
2022/10/12 03:27:49;;;;;;;;;;;;;;;;;;5052309;28;19925;-77
2022/10/12 03:30:17;;;;;;;;;;;;;;;;;;5052522;28;19939;-77
2022/10/12 03:32:43;;;;;;;;;;;;;;;;;;5053699;28;19967;-77
2022/10/12 03:35:10;;;;;;;;;;;;;;;;;;5054153;28;19925;-77
2022/10/12 03:37:36;;;;;;;;;;;;;;;;;;5053461;28;19925;-77
2022/10/12 03:40:03;;;;;;;;;;;;;;;;;;5054112;28;19925;-77
2022/10/12 03:42:29;;;;;;;;;;;;;;;;;;5054197;28;19925;-77
2022/10/12 03:44:56;;;;;;;;;;;;;;;;;;5054191;28;20268;-77
2022/10/12 03:47:23;;;;;;;;;;;;;;;;;;5054389;28;19925;-77
2022/10/12 03:49:50;;;;;;;;;;;;;;;;;;5054288;28;19945;-77
2022/10/12 03:52:16;;;;;;;;;;;;;;;;;;5054276;28;19970;-77
2022/10/12 03:54:43;;;;;;;;;;;;;;;;;;5054446;28;20023;-77
2022/10/12 03:57:09;;;;;;;;;;;;;;;;;;5053593;28;19925;-77
2022/10/12 03:59:36;;;;;;;;;;;;;;;;;;5052492;28;19979;-77
2022/10/12 04:02:02;;;;;;;;;;;;;;;;;;5052119;28;19947;-77
2022/10/12 04:04:30;;;;;;;;;;;;;;;;;;5052042;28;19924;-77
2022/10/12 04:06:56;;;;;;;;;;;;;;;;;;5053711;28;20382;-77
2022/10/12 04:09:23;;;;;;;;;;;;;;;;;;5054052;28;19924;-77
2022/10/12 04:11:49;;;;;;;;;;;;;;;;;;5053935;28;19931;-78
2022/10/12 04:14:15;;;;;;;;;;;;;;;;;;5053435;28;19933;-77
2022/10/12 04:16:44;;;;;;;;;;;;;;;;;;5052243;28;19979;-77
2022/10/12 04:19:12;;;;;;;;;;;;;;;;;;5053871;28;19932;-78
2022/10/12 04:21:40;;;;;;;;;;;;;;;;;;5052831;28;19925;-77
2022/10/12 04:24:07;;;;;;;;;;;;;;;;;;5053136;28;19925;-77
2022/10/12 04:26:33;;;;;;;;;;;;;;;;;;5052970;28;19925;-77
2022/10/12 04:28:59;;;;;;;;;;;;;;;;;;5052831;28;19947;-77
2022/10/12 04:31:26;;;;;;;;;;;;;;;;;;5051855;28;19931;-77
2022/10/12 04:33:55;;;;;;;;;;;;;;;;;;5051828;28;20027;-77
2022/10/12 04:36:22;;;;;;;;;;;;;;;;;;5051644;28;19979;-77
2022/10/12 04:38:49;;;;;;;;;;;;;;;;;;5051893;28;19925;-77
2022/10/12 04:41:16;;;;;;;;;;;;;;;;;;5051850;28;19925;-77
2022/10/12 04:43:42;;;;;;;;;;;;;;;;;;5051769;28;19944;-77
2022/10/12 04:46:09;;;;;;;;;;;;;;;;;;5051716;28;19972;-77
2022/10/12 04:48:35;;;;;;;;;;;;;;;;;;5051812;28;19929;-77
2022/10/12 04:51:01;;;;;;;;;;;;;;;;;;5056103;28;19931;-77
2022/10/12 04:53:28;;;;;;;;;;;;;;;;;;5055777;28;20402;-77
2022/10/12 04:55:56;;;;;;;;;;;;;;;;;;5055259;28;19939;-77
2022/10/12 04:58:23;;;;;;;;;;;;;;;;;;5055484;28;19975;-78
2022/10/12 05:00:49;;;;;;;;;;;;;;;;;;5055823;28;19971;-76
2022/10/12 05:03:16;;;;;;;;;;;;;;;;;;5055153;28;19972;-76
2022/10/12 05:05:44;;;;;;;;;;;;;;;;;;5055508;28;19960;-75
2022/10/12 05:08:11;;;;;;;;;;;;;;;;;;5055727;28;20012;-75
2022/10/12 05:10:37;;;;;;;;;;;;;;;;;;5055924;28;19940;-75
2022/10/12 05:13:05;;;;;;;;;;;;;;;;;;5055620;28;19970;-76
2022/10/12 05:15:32;;;;;;;;;;;;;;;;;;5055430;28;19925;-77
2022/10/12 05:17:58;;;;;;;;;;;;;;;;;;5054926;28;20378;-76
2022/10/12 05:20:25;;;;;;;;;;;;;;;;;;5055344;28;19931;-76
2022/10/12 05:22:51;;;;;;;;;;;;;;;;;;5055138;28;19925;-76
2022/10/12 05:25:20;;;;;;;;;;;;;;;;;;5054152;28;20468;-75
2022/10/12 05:27:46;;;;;;;;;;;;;;;;;;5054835;28;20295;-76
2022/10/12 05:30:14;;;;;;;;;;;;;;;;;;5054757;28;19964;-75
2022/10/12 05:32:42;;;;;;;;;;;;;;;;;;5054993;28;19924;-75
2022/10/12 05:35:09;;;;;;;;;;;;;;;;;;5054404;28;19924;-76
2022/10/12 05:37:35;;;;;;;;;;;;;;;;;;5054711;28;20011;-75
2022/10/12 05:40:02;;;;;;;;;;;;;;;;;;5054802;28;20007;-75
2022/10/12 05:42:28;;;;;;;;;;;;;;;;;;5055236;28;20029;-74
2022/10/12 05:44:55;;;;;;;;;;;;;;;;;;5054614;28;19924;-78
2022/10/12 05:47:23;;;;;;;;;;;;;;;;;;5054635;28;20012;-75
2022/10/12 05:49:49;;;;;;;;;;;;;;;;;;5054115;28;20023;-77
2022/10/12 05:52:16;;;;;;;;;;;;;;;;;;5054271;28;20383;-76
2022/10/12 05:54:42;;;;;;;;;;;;;;;;;;5054281;28;19971;-75
2022/10/12 05:57:09;;;;;;;;;;;;;;;;;;5053793;28;19978;-76
2022/10/12 05:59:35;;;;;;;;;;;;;;;;;;5054211;28;19924;-76
2022/10/12 06:02:01;;;;;;;;;;;;;;;;;;5051638;28;19964;-75
2022/10/12 06:04:29;;;;;;;;;;;;;;;;;;5034037;28;19971;-76
2022/10/12 06:06:56;;;;;;;;;;;;;;;;;;5034038;28;19929;-75
2022/10/12 06:09:22;;;;;;;;;;;;;;;;;;5034277;28;19979;-77
2022/10/12 06:11:49;;;;;;;;;;;;;;;;;;5034245;28;19983;-75
2022/10/12 06:14:16;;;;;;;;;;;;;;;;;;5033781;28;19932;-75
2022/10/12 06:16:42;;;;;;;;;;;;;;;;;;5033006;28;19925;-76
2022/10/12 06:19:10;;;;;;;;;;;;;;;;;;5033973;28;19932;-74
2022/10/12 06:21:38;;;;;;;;;;;;;;;;;;5034118;28;19964;-77
2022/10/12 06:24:05;;;;;;;;;;;;;;;;;;5033940;28;19980;-77
2022/10/12 06:26:31;;;;;;;;;;;;;;;;;;5033402;28;19971;-75
2022/10/12 06:28:59;;;;;;;;;;;;;;;;;;5033884;28;19928;-74
2022/10/12 06:31:26;;;;;;;;;;;;;;;;;;5034020;28;20024;-76
2022/10/12 06:33:52;;;;;;;;;;;;;;;;;;5034454;28;19931;-76
2022/10/12 06:36:19;;;;;;;;;;;;;;;;;;5038530;28;19960;-76
2022/10/12 06:38:48;;;;;;;;;;;;;;;;;;5033926;28;20377;-77
2022/10/12 06:41:14;;;;;;;;;;;;;;;;;;5036561;28;19925;-79
2022/10/12 06:43:41;;;;;;;;;;;;;;;;;;5034183;28;19961;-75
2022/10/12 06:46:07;;;;;;;;;;;;;;;;;;5036299;28;19976;-76
2022/10/12 06:48:34;;;;;;;;;;;;;;;;;;5033582;28;20376;-76
2022/10/12 06:51:00;;;;;;;;;;;;;;;;;;5033445;28;19979;-76
2022/10/12 06:53:29;;;;;;;;;;;;;;;;;;5037234;28;19973;-77
2022/10/12 06:55:57;;;;;;;;;;;;;;;;;;5035751;28;19925;-78
2022/10/12 06:58:24;;;;;;;;;;;;;;;;;;5035457;28;19982;-77
2022/10/12 07:00:51;;;;;;;;;;;;;;;;;;5036367;28;19960;-75
2022/10/12 07:03:17;;;;;;;;;;;;;;;;;;5051346;28;19925;-76
2022/10/12 07:05:44;;;;;;;;;;;;;;;;;;5052064;28;19964;-75
2022/10/12 07:08:10;;;;;;;;;;;;;;;;;;5030866;28;19961;-76
2022/10/12 07:10:37;;;;;;;;;;;;;;;;;;5030277;28;19960;-75
2022/10/12 07:13:05;;;;;;;;;;;;;;;;;;5030796;28;20019;-76
2022/10/12 07:15:31;;;;;;;;;;;;;;;;;;5031307;28;20375;-75
2022/10/12 07:17:58;;;;;;;;;;;;;;;;;;5031382;28;19932;-75
2022/10/12 07:20:24;;;;;;;;;;;;;;;;;;5031978;28;19987;-75
2022/10/12 07:22:52;;;;;;;;;;;;;;;;;;5048043;28;19931;-75
2022/10/12 07:25:18;;;;;;;;;;;;;;;;;;5046645;28;19936;-75
2022/10/12 07:27:47;;;;;;;;;;;;;;;;;;5038323;28;19932;-75
2022/10/12 07:30:14;;;;;;;;;;;;;;;;;;5047992;28;20020;-75
2022/10/12 07:32:43;;;;;;;;;;;;;;;;;;5040994;28;19999;-74
2022/10/12 07:35:09;;;;;;;;;;;;;;;;;;5044361;28;19925;-75
2022/10/12 07:37:36;;;;;;;;;;;;;;;;;;5040404;28;20392;-75
2022/10/12 07:40:04;;;;;;;;;;;;;;;;;;5041162;28;19925;-76
2022/10/12 07:42:31;;;;;;;;;;;;;;;;;;5048664;28;19925;-75
2022/10/12 07:44:57;;;;;;;;;;;;;;;;;;5046230;28;19935;-75
2022/10/12 07:47:25;;;;;;;;;;;;;;;;;;5041077;28;20394;-75
2022/10/12 07:49:53;;;;;;;;;;;;;;;;;;5042381;28;20431;-73
2022/10/12 07:52:19;;;;;;;;;;;;;;;;;;5049935;28;19925;-76
2022/10/12 07:54:46;;;;;;;;;;;;;;;;;;5045974;28;20015;-75
2022/10/12 07:57:12;;;;;;;;;;;;;;;;;;5044657;28;20016;-74
2022/10/12 07:59:38;;;;;;;;;;;;;;;;;;5039248;28;20415;-75
2022/10/12 08:02:05;;;;;;;;;;;;;;;;;;5035960;28;19964;-75
2022/10/12 08:04:33;;;;;;;;;;;;;;;;;;5044974;28;19925;-75
2022/10/12 08:06:59;;;;;;;;;;;;;;;;;;5040225;28;19964;-75
2022/10/12 08:09:26;;;;;;;;;;;;;;;;;;5053902;28;19931;-74
2022/10/12 08:11:52;;;;;;;;;;;;;;;;;;5054353;28;19924;-74
2022/10/12 08:14:18;;;;;;;;;;;;;;;;;;5054303;28;20011;-75
2022/10/12 08:16:51;;;;;;;;;;;;;;;;;;5054361;28;20392;-74
2022/10/12 08:19:17;;;;;;;;;;;;;;;;;;5060725;28;19959;-74
2022/10/12 08:21:45;;;;;;;;;;;;;;;;;;5062704;28;20007;-74
2022/10/12 08:24:12;;;;;;;;;;;;;;;;;;5062116;28;19924;-74
2022/10/12 08:26:39;;;;;;;;;;;;;;;;;;5067694;28;19993;-75
2022/10/12 08:29:06;;;;;;;;;;;;;;;;;;5067725;28;19924;-75
2022/10/12 08:31:33;;;;;;;;;;;;;;;;;;5070166;28;19932;-74
2022/10/12 08:34:00;;;;;;;;;;;;;;;;;;5075940;28;19960;-76
2022/10/12 08:36:26;;;;;;;;;;;;;;;;;;5078684;28;19960;-76
2022/10/12 08:38:54;;;;;;;;;;;;;;;;;;5078259;28;19932;-75
2022/10/12 08:41:26;;;;;;;;;;;;;;;;;;5073943;28;19951;-75
2022/10/12 08:44:00;;;;;;;;;;;;;;;;;;5070108;28;19925;-76
2022/10/12 08:46:27;;;;;;;;;;;;;;;;;;5072993;28;19955;-77
2022/10/12 08:48:56;;;;;;;;;;;;;;;;;;5079288;28;19913;-76
2022/10/12 08:51:26;;;;;;;;;;;;;;;;;;5080486;28;19936;-75
2022/10/12 08:53:55;;;;;;;;;;;;;;;;;;5079667;28;19912;-75
2022/10/12 08:56:23;;;;;;;;;;;;;;;;;;5075364;28;20023;-75
2022/10/12 08:58:50;;;;;;;;;;;;;;;;;;5077349;28;19925;-75
2022/10/12 09:01:24;;;;;;;;;;;;;;;;;;5073898;28;19928;-76
2022/10/12 09:03:56;;;;;;;;;;;;;;;;;;5072228;28;19968;-75
2022/10/12 09:06:24;;;;;;;;;;;;;;;;;;5073769;28;19972;-76
2022/10/12 09:08:57;;;;;;;;;;;;;;;;;;5072881;28;19964;-75
2022/10/12 09:11:32;;;;;;;;;;;;;;;;;;5075640;28;19925;-76
2022/10/12 09:14:02;;;;;;;;;;;;;;;;;;5089528;22;19974;-57
2022/10/12 09:16:30;;;;;;;;;;;;;;;;;;5052955;28;19952;-57
2022/10/12 09:18:58;;;;;;;;;;;;;;;;;;5071877;28;20393;-57
2022/10/12 09:21:26;;;;;;;;;;;;;;;;;;5072959;28;19929;-56
2022/10/12 09:23:55;;;;;;;;;;;;;;;;;;5073038;28;20305;-54
2022/10/12 09:26:26;;;;;;;;;;;;;;;;;;5073190;28;19932;-57
2022/10/12 09:28:54;;;;;;;;;;;;;;;;;;5072786;28;19924;-56
2022/10/12 09:31:31;;;;;;;;;;;;;;;;;;5072899;28;19931;-57
2022/10/12 09:33:59;;;;;;;;;;;;;;;;;;5072890;28;19932;-57
2022/10/12 09:36:27;;;;;;;;;;;;;;;;;;5071721;28;20635;-57
2022/10/12 09:38:54;;;;;;;;;;;;;;;;;;5072526;28;19924;-55
2022/10/12 09:41:22;;;;;;;;;;;;;;;;;;5072740;28;20002;-54
2022/10/12 09:43:50;;;;;;;;;;;;;;;;;;5072550;28;19925;-58
2022/10/12 09:46:22;;;;;;;;;;;;;;;;;;5072753;28;20282;-58
2022/10/12 09:48:58;;;;;;;;;;;;;;;;;;5072603;28;19932;-57
2022/10/12 09:51:25;;;;;;;;;;;;;;;;;;5072790;28;19950;-56
2022/10/12 09:53:53;;;;;;;;;;;;;;;;;;5072411;28;20351;-55
2022/10/12 09:56:24;;;;;;;;;;;;;;;;;;5072704;28;20024;-56
2022/10/12 09:58:51;;;;;;;;;;;;;;;;;;5071981;28;19929;-55
2022/10/12 10:01:22;;;;;;;;;;;;;;;;;;5072804;28;20293;-53
2022/10/12 10:03:50;;;;;;;;;;;;;;;;;;5072675;28;19928;-55
2022/10/12 10:06:22;;;;;;;;;;;;;;;;;;5072587;28;19931;-56
2022/10/12 10:08:49;;;;;;;;;;;;;;;;;;5072241;28;19924;-57
2022/10/12 10:11:16;;;;;;;;;;;;;;;;;;5072076;28;20450;-56
2022/10/12 10:13:50;;;;;;;;;;;;;;;;;;5071859;28;19977;-57
2022/10/12 10:16:18;;;;;;;;;;;;;;;;;;5071642;28;19939;-56
2022/10/12 10:18:48;;;;;;;;;;;;;;;;;;5071824;28;19925;-54
2022/10/12 10:21:16;;;;;;;;;;;;;;;;;;5072159;28;20453;-57
2022/10/12 10:23:44;;;;;;;;;;;;;;;;;;5072021;28;19924;-56
2022/10/12 10:26:13;;;;;;;;;;;;;;;;;;5071592;28;19932;-56
2022/10/12 10:28:41;;;;;;;;;;;;;;;;;;5070904;28;20015;-58
2022/10/12 10:31:16;;;;;;;;;;;;;;;;;;5071649;28;19932;-54
2022/10/12 10:33:43;;;;;;;;;;;;;;;;;;5071843;28;19925;-54
2022/10/12 10:36:18;;;;;;;;;;;;;;;;;;5071446;28;19924;-56
2022/10/12 10:38:54;;;;;;;;;;;;;;;;;;5071048;28;19925;-58
2022/10/12 10:41:23;;;;;;;;;;;;;;;;;;5071488;28;20007;-57
2022/10/12 10:43:50;;;;;;;;;;;;;;;;;;5071495;28;19929;-55
2022/10/12 10:46:22;;;;;;;;;;;;;;;;;;5071758;28;20270;-56
2022/10/12 10:48:52;;;;;;;;;;;;;;;;;;5070921;28;19981;-57
2022/10/12 10:51:20;;;;;;;;;;;;;;;;;;5071362;28;19924;-57
2022/10/12 10:53:47;;;;;;;;;;;;;;;;;;5070673;28;19929;-62
2022/10/12 10:56:16;;;;;;;;;;;;;;;;;;5071083;28;19929;-55
2022/10/12 10:58:44;;;;;;;;;;;;;;;;;;5071189;28;19974;-54
2022/10/12 11:01:14;;;;;;;;;;;;;;;;;;5071484;28;20269;-55
2022/10/12 11:03:45;;;;;;;;;;;;;;;;;;5071010;28;19987;-63
2022/10/12 11:06:16;;;;;;;;;;;;;;;;;;5071275;28;19928;-61
2022/10/12 11:08:45;;;;;;;;;;;;;;;;;;5071078;28;19974;-53
2022/10/12 11:11:14;;;;;;;;;;;;;;;;;;5070662;28;19924;-57
2022/10/12 11:13:43;;;;;;;;;;;;;;;;;;5071169;28;20089;-56
2022/10/12 11:16:14;;;;;;;;;;;;;;;;;;5071063;28;19924;-57
2022/10/12 11:18:43;;;;;;;;;;;;;;;;;;5070950;28;19946;-57
2022/10/12 11:21:12;;;;;;;;;;;;;;;;;;5070729;28;19939;-57
2022/10/12 11:23:41;;;;;;;;;;;;;;;;;;5070354;28;19931;-55
2022/10/12 11:26:22;;;;;;;;;;;;;;;;;;5071112;28;20343;-55
2022/10/12 11:28:49;;;;;;;;;;;;;;;;;;5071128;28;19978;-57
2022/10/12 11:31:18;;;;;;;;;;;;;;;;;;5070747;28;19928;-56
2022/10/12 11:33:46;;;;;;;;;;;;;;;;;;5070502;28;20404;-54
2022/10/12 11:36:13;;;;;;;;;;;;;;;;;;5070678;28;19970;-56
2022/10/12 11:38:42;;;;;;;;;;;;;;;;;;5071009;28;20392;-60
2022/10/12 11:41:11;;;;;;;;;;;;;;;;;;5070653;28;19931;-58
2022/10/12 11:43:41;;;;;;;;;;;;;;;;;;5070666;28;19925;-57
2022/10/12 11:46:12;;;;;;;;;;;;;;;;;;5070514;28;19924;-57
2022/10/12 11:48:41;;;;;;;;;;;;;;;;;;5070535;28;20078;-58
2022/10/12 11:51:08;;;;;;;;;;;;;;;;;;5070876;28;19931;-57
2022/10/12 11:53:39;;;;;;;;;;;;;;;;;;5070805;28;19924;-55
2022/10/12 11:56:09;;;;;;;;;;;;;;;;;;5070618;28;19929;-57
2022/10/12 11:58:37;;;;;;;;;;;;;;;;;;5069774;28;19935;-56
2022/10/12 12:01:16;;;;;;;;;;;;;;;;;;5070539;28;20448;-54
2022/10/12 12:04:13;;;;;;;;;;;;;;;;;;5070436;28;19978;-57
2022/10/12 12:06:46;;;;;;;;;;;;;;;;;;5075349;28;19947;-53
2022/10/12 12:09:19;;;;;;;;;;;;;;;;;;5072979;28;19924;-55
2022/10/12 12:11:46;;;;;;;;;;;;;;;;;;5070244;28;19933;-52
2022/10/12 12:14:32;;;;;;;;;;;;;;;;;;5070725;28;20335;-52
2022/10/12 12:17:14;;;;;;;;;;;;;;;;;;5070158;28;19928;-52
2022/10/12 12:19:41;;;;;;;;;;;;;;;;;;5069974;28;19932;-47
2022/10/12 12:22:23;;;;;;;;;;;;;;;;;;5070093;28;20373;-50
2022/10/12 12:24:54;;;;;;;;;;;;;;;;;;5069628;28;19930;-48
2022/10/12 12:27:22;;;;;;;;;;;;;;;;;;5069980;28;19928;-49
2022/10/12 12:29:50;;;;;;;;;;;;;;;;;;5059299;28;19931;-50
2022/10/12 12:32:18;;;;;;;;;;;;;;;;;;5050185;28;19936;-49
2022/10/12 12:34:50;;;;;;;;;;;;;;;;;;5050262;28;19932;-49
2022/10/12 12:37:19;;;;;;;;;;;;;;;;;;5049817;28;19935;-52
2022/10/12 12:39:51;;;;;;;;;;;;;;;;;;5049573;28;19936;-49
2022/10/12 12:45:41;;;;;;;;;;;;;;;;;;5063130;28;20438;-49
2022/10/12 12:48:10;;;;;;;;;;;;;;;;;;5069556;28;19936;-52
2022/10/12 12:50:37;;;;;;;;;;;;;;;;;;5069799;28;20015;-52
2022/10/12 12:53:06;;;;;;;;;;;;;;;;;;5069622;28;19924;-51
2022/10/12 12:55:45;;;;;;;;;;;;;;;;;;5069549;28;19931;-52
2022/10/12 12:58:30;;;;;;;;;;;;;;;;;;5069290;28;19925;-51
2022/10/12 13:01:16;;;;;;;;;;;;;;;;;;5069223;28;20392;-52
2022/10/12 13:03:59;;;;;;;;;;;;;;;;;;5069371;28;19971;-48
2022/10/12 13:06:41;;;;;;;;;;;;;;;;;;5069417;28;20023;-50
2022/10/12 13:09:31;;;;;;;;;;;;;;;;;;5069462;28;19971;-52
2022/10/12 13:12:03;;;;;;;;;;;;;;;;;;5057134;28;19928;-51
2022/10/12 13:14:40;;;;;;;;;;;;;;;;;;5072752;28;19928;-51
2022/10/12 13:17:13;;;;;;;;;;;;;;;;;;5072423;28;20378;-50
2022/10/12 13:19:42;;;;;;;;;;;;;;;;;;5073219;28;19925;-53
2022/10/12 13:22:13;;;;;;;;;;;;;;;;;;5072763;28;19924;-50
2022/10/12 13:24:44;;;;;;;;;;;;;;;;;;5072679;28;19928;-49
2022/10/12 13:27:15;;;;;;;;;;;;;;;;;;5072483;28;19931;-56
2022/10/12 13:29:46;;;;;;;;;;;;;;;;;;5072688;28;20347;-49
2022/10/12 13:32:18;;;;;;;;;;;;;;;;;;5072697;28;20025;-51
2022/10/12 13:34:47;;;;;;;;;;;;;;;;;;5072844;28;19928;-56
2022/10/12 13:37:14;;;;;;;;;;;;;;;;;;5071977;28;20065;-52
2022/10/12 13:39:43;;;;;;;;;;;;;;;;;;5072827;28;19983;-52
2022/10/12 13:42:13;;;;;;;;;;;;;;;;;;5072528;28;20008;-50
2022/10/12 13:44:40;;;;;;;;;;;;;;;;;;5072521;28;19931;-52
2022/10/12 13:47:21;;;;;;;;;;;;;;;;;;5071984;28;20089;-49
2022/10/12 13:49:49;;;;;;;;;;;;;;;;;;5072414;28;19975;-52
2022/10/12 13:52:18;;;;;;;;;;;;;;;;;;5072049;28;20400;-52
2022/10/12 13:54:46;;;;;;;;;;;;;;;;;;5068558;28;19925;-48
2022/10/12 13:57:16;;;;;;;;;;;;;;;;;;5070551;28;19924;-50
2022/10/12 13:59:43;;;;;;;;;;;;;;;;;;5072391;28;19928;-51
2022/10/12 14:02:17;;;;;;;;;;;;;;;;;;5072277;28;20290;-52
2022/10/12 14:04:43;;;;;;;;;;;;;;;;;;5071987;28;19924;-52
2022/10/12 14:07:17;;;;;;;;;;;;;;;;;;5071582;28;20214;-49
2022/10/12 14:09:45;;;;;;;;;;;;;;;;;;5072125;28;19947;-51
2022/10/12 14:12:12;;;;;;;;;;;;;;;;;;5071939;28;19924;-50
2022/10/12 14:14:40;;;;;;;;;;;;;;;;;;5072022;28;19982;-53
2022/10/12 14:17:07;;;;;;;;;;;;;;;;;;5071152;28;20649;-54
2022/10/12 14:19:41;;;;;;;;;;;;;;;;;;5071773;28;19931;-53
2022/10/12 14:22:08;;;;;;;;;;;;;;;;;;5071055;28;19936;-48
2022/10/12 14:24:36;;;;;;;;;;;;;;;;;;5072385;28;19925;-51
2022/10/12 14:27:04;;;;;;;;;;;;;;;;;;5071404;28;20382;-53
2022/10/12 14:29:35;;;;;;;;;;;;;;;;;;5071798;28;19972;-53
2022/10/12 14:32:03;;;;;;;;;;;;;;;;;;5071380;28;19924;-51
2022/10/12 14:34:38;;;;;;;;;;;;;;;;;;5071755;28;19928;-53
2022/10/12 14:37:06;;;;;;;;;;;;;;;;;;5071295;28;20400;-52
2022/10/12 14:39:33;;;;;;;;;;;;;;;;;;5071693;28;19929;-53
2022/10/12 14:42:02;;;;;;;;;;;;;;;;;;5071429;28;19924;-50
2022/10/12 14:44:29;;;;;;;;;;;;;;;;;;5071120;28;19925;-52
2022/10/12 14:47:00;;;;;;;;;;;;;;;;;;5071147;28;19931;-49
2022/10/12 14:49:32;;;;;;;;;;;;;;;;;;5071718;28;19986;-50
2022/10/12 14:51:59;;;;;;;;;;;;;;;;;;5071150;28;19924;-51
2022/10/12 14:54:25;;;;;;;;;;;;;;;;;;5071401;28;19966;-56
2022/10/12 14:56:52;;;;;;;;;;;;;;;;;;5070462;28;19924;-53
2022/10/12 14:59:20;;;;;;;;;;;;;;;;;;5071160;28;19924;-51
2022/10/12 15:01:46;;;;;;;;;;;;;;;;;;5070999;28;20305;-54
2022/10/12 15:04:13;;;;;;;;;;;;;;;;;;5051356;28;19925;-51
2022/10/12 15:06:40;;;;;;;;;;;;;;;;;;5051849;28;20309;-52
2022/10/12 15:09:07;;;;;;;;;;;;;;;;;;5051347;28;19929;-54
2022/10/12 15:11:33;;;;;;;;;;;;;;;;;;5051066;28;19932;-56
2022/10/12 15:14:00;;;;;;;;;;;;;;;;;;5051091;28;19932;-50
2022/10/12 15:16:28;;;;;;;;;;;;;;;;;;5050963;28;19924;-52
2022/10/12 15:18:55;;;;;;;;;;;;;;;;;;5054726;28;19996;-54
2022/10/12 15:21:21;;;;;;;;;;;;;;;;;;5050680;28;20381;-53
2022/10/12 15:23:48;;;;;;;;;;;;;;;;;;5072497;22;19924;-74
2022/10/12 15:26:16;;;;;;;;;;;;;;;;;;5008568;28;19929;-76
2022/10/12 15:28:42;;;;;;;;;;;;;;;;;;5011662;28;19925;-77
2022/10/12 15:31:10;;;;;;;;;;;;;;;;;;5012372;28;19929;-75
2022/10/12 15:33:38;;;;;;;;;;;;;;;;;;5011204;28;20016;-77
2022/10/12 15:36:05;;;;;;;;;;;;;;;;;;4973884;28;20316;-76
2022/10/12 15:38:34;;;;;;;;;;;;;;;;;;4973362;28;19983;-76
2022/10/12 15:41:00;;;;;;;;;;;;;;;;;;4984321;28;19976;-76
2022/10/12 15:43:27;;;;;;;;;;;;;;;;;;4990640;28;19957;-74
2022/10/12 15:45:55;;;;;;;;;;;;;;;;;;4979053;28;20444;-75
2022/10/12 15:48:21;;;;;;;;;;;;;;;;;;4979369;28;20384;-74
2022/10/12 15:50:49;;;;;;;;;;;;;;;;;;4987106;28;19953;-75
2022/10/12 15:53:16;;;;;;;;;;;;;;;;;;4991719;28;20016;-76
2022/10/12 15:55:43;;;;;;;;;;;;;;;;;;4991341;28;19926;-77
2022/10/12 15:58:09;;;;;;;;;;;;;;;;;;4990736;28;19988;-74
2022/10/12 16:00:36;;;;;;;;;;;;;;;;;;4991402;28;19977;-73
2022/10/12 16:03:02;;;;;;;;;;;;;;;;;;4987079;28;19969;-75
2022/10/12 16:05:31;;;;;;;;;;;;;;;;;;4990472;28;19969;-74
2022/10/12 16:07:59;;;;;;;;;;;;;;;;;;4990387;28;19968;-74
2022/10/12 16:10:26;;;;;;;;;;;;;;;;;;4990909;28;19926;-76
2022/10/12 16:12:54;;;;;;;;;;;;;;;;;;4990829;28;19926;-75
2022/10/12 16:15:21;;;;;;;;;;;;;;;;;;4990833;28;19961;-74
2022/10/12 16:17:48;;;;;;;;;;;;;;;;;;4990671;28;19925;-77
2022/10/12 16:20:14;;;;;;;;;;;;;;;;;;4990858;28;20021;-75
2022/10/12 16:22:41;;;;;;;;;;;;;;;;;;4990975;28;20029;-75
2022/10/12 16:25:10;;;;;;;;;;;;;;;;;;4990884;28;20093;-75
2022/10/12 16:27:37;;;;;;;;;;;;;;;;;;4990739;28;20016;-75
2022/10/12 16:30:04;;;;;;;;;;;;;;;;;;4990805;28;20008;-75
2022/10/12 16:32:31;;;;;;;;;;;;;;;;;;4990499;28;20017;-75
2022/10/12 16:34:57;;;;;;;;;;;;;;;;;;4991014;28;19926;-74
2022/10/12 16:37:23;;;;;;;;;;;;;;;;;;4991112;28;19925;-76
2022/10/12 16:39:52;;;;;;;;;;;;;;;;;;4991170;28;20025;-76
2022/10/12 16:42:20;;;;;;;;;;;;;;;;;;4991052;28;19956;-76
2022/10/12 16:44:47;;;;;;;;;;;;;;;;;;4990701;28;20553;-76
2022/10/12 16:47:13;;;;;;;;;;;;;;;;;;4993993;28;20577;-75
2022/10/12 16:49:40;;;;;;;;;;;;;;;;;;4994429;28;20080;-75
2022/10/12 16:52:07;;;;;;;;;;;;;;;;;;4994530;28;20439;-75
2022/10/12 16:54:33;;;;;;;;;;;;;;;;;;4994537;28;19925;-75
2022/10/12 16:57:00;;;;;;;;;;;;;;;;;;4994083;28;19936;-75
2022/10/12 16:59:28;;;;;;;;;;;;;;;;;;4993985;28;19957;-75